sensor_id;sensor_type;location;lat;lon;timestamp;P1;durP1;ratioP1;P2;durP2;ratioP2
11541;SDS011;5827;49.482;7.716;2023-05-10T00:00:45;4.00;;;2.63;;
11541;SDS011;5827;49.482;7.716;2023-05-10T00:02:47;3.50;;;2.13;;
11541;SDS011;5827;49.482;7.716;2023-05-10T00:04:49;2.60;;;2.30;;
11541;SDS011;5827;49.482;7.716;2023-05-10T00:06:50;3.00;;;2.50;;
11541;SDS011;5827;49.482;7.716;2023-05-10T00:08:51;2.80;;;2.60;;
11541;SDS011;5827;49.482;7.716;2023-05-10T00:10:53;4.13;;;2.63;;
11541;SDS011;5827;49.482;7.716;2023-05-10T00:12:54;2.70;;;2.50;;
11541;SDS011;5827;49.482;7.716;2023-05-10T00:14:57;2.90;;;2.60;;
11541;SDS011;5827;49.482;7.716;2023-05-10T00:16:59;2.90;;;2.70;;
11541;SDS011;5827;49.482;7.716;2023-05-10T00:19:00;3.17;;;2.90;;
11541;SDS011;5827;49.482;7.716;2023-05-10T00:21:02;3.50;;;2.97;;
11541;SDS011;5827;49.482;7.716;2023-05-10T00:23:03;3.30;;;3.10;;
11541;SDS011;5827;49.482;7.716;2023-05-10T00:25:06;3.93;;;3.10;;
11541;SDS011;5827;49.482;7.716;2023-05-10T00:27:08;2.83;;;2.47;;
11541;SDS011;5827;49.482;7.716;2023-05-10T00:29:10;3.30;;;3.00;;
11541;SDS011;5827;49.482;7.716;2023-05-10T00:31:13;4.60;;;3.30;;
11541;SDS011;5827;49.482;7.716;2023-05-10T00:33:14;3.50;;;3.20;;
11541;SDS011;5827;49.482;7.716;2023-05-10T00:35:16;3.23;;;3.00;;
11541;SDS011;5827;49.482;7.716;2023-05-10T00:37:18;4.57;;;2.93;;
11541;SDS011;5827;49.482;7.716;2023-05-10T00:39:19;3.37;;;3.07;;
11541;SDS011;5827;49.482;7.716;2023-05-10T00:41:21;3.60;;;3.30;;
11541;SDS011;5827;49.482;7.716;2023-05-10T00:43:22;3.30;;;3.03;;
11541;SDS011;5827;49.482;7.716;2023-05-10T00:45:24;3.77;;;3.27;;
11541;SDS011;5827;49.482;7.716;2023-05-10T00:47:27;6.07;;;3.57;;
11541;SDS011;5827;49.482;7.716;2023-05-10T00:49:28;3.07;;;2.83;;
11541;SDS011;5827;49.482;7.716;2023-05-10T00:51:31;8.37;;;3.30;;
11541;SDS011;5827;49.482;7.716;2023-05-10T00:53:32;3.90;;;3.07;;
11541;SDS011;5827;49.482;7.716;2023-05-10T00:55:35;3.50;;;3.20;;
11541;SDS011;5827;49.482;7.716;2023-05-10T00:57:38;3.67;;;3.47;;
11541;SDS011;5827;49.482;7.716;2023-05-10T00:59:39;3.67;;;3.37;;
11541;SDS011;5827;49.482;7.716;2023-05-10T01:01:41;3.47;;;3.17;;
11541;SDS011;5827;49.482;7.716;2023-05-10T01:03:44;3.77;;;3.47;;
11541;SDS011;5827;49.482;7.716;2023-05-10T01:05:46;3.20;;;3.00;;
11541;SDS011;5827;49.482;7.716;2023-05-10T01:07:48;3.93;;;3.27;;
11541;SDS011;5827;49.482;7.716;2023-05-10T01:09:49;3.97;;;3.30;;
11541;SDS011;5827;49.482;7.716;2023-05-10T01:11:51;3.47;;;3.20;;
11541;SDS011;5827;49.482;7.716;2023-05-10T01:13:54;3.83;;;3.50;;
11541;SDS011;5827;49.482;7.716;2023-05-10T01:15:58;4.20;;;3.50;;
11541;SDS011;5827;49.482;7.716;2023-05-10T01:17:59;3.43;;;3.13;;
11541;SDS011;5827;49.482;7.716;2023-05-10T01:20:03;3.57;;;3.23;;
11541;SDS011;5827;49.482;7.716;2023-05-10T01:22:11;4.70;;;3.40;;
11541;SDS011;5827;49.482;7.716;2023-05-10T01:27:23;3.83;;;3.53;;
11541;SDS011;5827;49.482;7.716;2023-05-10T01:29:43;4.33;;;3.90;;
11541;SDS011;5827;49.482;7.716;2023-05-10T01:34:33;4.20;;;3.80;;
11541;SDS011;5827;49.482;7.716;2023-05-10T01:36:39;5.17;;;3.60;;
11541;SDS011;5827;49.482;7.716;2023-05-10T01:38:46;4.30;;;3.90;;
11541;SDS011;5827;49.482;7.716;2023-05-10T01:40:53;4.27;;;3.97;;
11541;SDS011;5827;49.482;7.716;2023-05-10T01:43:02;5.50;;;4.00;;
11541;SDS011;5827;49.482;7.716;2023-05-10T01:45:07;6.77;;;4.03;;
11541;SDS011;5827;49.482;7.716;2023-05-10T01:47:16;4.43;;;4.03;;
11541;SDS011;5827;49.482;7.716;2023-05-10T01:49:24;4.83;;;4.23;;
11541;SDS011;5827;49.482;7.716;2023-05-10T01:51:36;5.27;;;4.77;;
11541;SDS011;5827;49.482;7.716;2023-05-10T01:53:42;4.73;;;4.33;;
11541;SDS011;5827;49.482;7.716;2023-05-10T01:55:48;5.13;;;4.13;;
11541;SDS011;5827;49.482;7.716;2023-05-10T01:57:52;4.50;;;4.00;;
11541;SDS011;5827;49.482;7.716;2023-05-10T02:00:00;4.50;;;4.10;;
11541;SDS011;5827;49.482;7.716;2023-05-10T02:02:03;4.63;;;4.23;;
11541;SDS011;5827;49.482;7.716;2023-05-10T02:04:06;4.97;;;3.83;;
11541;SDS011;5827;49.482;7.716;2023-05-10T02:06:10;4.27;;;3.90;;
11541;SDS011;5827;49.482;7.716;2023-05-10T02:08:13;4.40;;;4.10;;
11541;SDS011;5827;49.482;7.716;2023-05-10T02:10:16;4.60;;;3.80;;
11541;SDS011;5827;49.482;7.716;2023-05-10T02:12:19;5.10;;;4.20;;
11541;SDS011;5827;49.482;7.716;2023-05-10T02:14:22;4.10;;;3.73;;
11541;SDS011;5827;49.482;7.716;2023-05-10T02:16:27;4.37;;;3.70;;
11541;SDS011;5827;49.482;7.716;2023-05-10T02:18:30;4.63;;;4.20;;
11541;SDS011;5827;49.482;7.716;2023-05-10T02:20:34;4.60;;;4.20;;
11541;SDS011;5827;49.482;7.716;2023-05-10T02:22:38;7.53;;;4.30;;
11541;SDS011;5827;49.482;7.716;2023-05-10T02:24:42;4.57;;;3.93;;
11541;SDS011;5827;49.482;7.716;2023-05-10T02:26:46;5.10;;;4.53;;
11541;SDS011;5827;49.482;7.716;2023-05-10T02:28:49;4.60;;;4.20;;
11541;SDS011;5827;49.482;7.716;2023-05-10T02:30:52;5.23;;;4.63;;
11541;SDS011;5827;49.482;7.716;2023-05-10T02:32:55;5.97;;;4.70;;
11541;SDS011;5827;49.482;7.716;2023-05-10T02:34:58;5.17;;;4.70;;
11541;SDS011;5827;49.482;7.716;2023-05-10T02:37:02;6.80;;;4.60;;
11541;SDS011;5827;49.482;7.716;2023-05-10T02:39:07;4.23;;;3.93;;
11541;SDS011;5827;49.482;7.716;2023-05-10T02:41:12;5.57;;;5.00;;
11541;SDS011;5827;49.482;7.716;2023-05-10T02:43:15;4.93;;;4.43;;
11541;SDS011;5827;49.482;7.716;2023-05-10T02:45:19;5.55;;;5.07;;
11541;SDS011;5827;49.482;7.716;2023-05-10T02:47:22;4.97;;;4.47;;
11541;SDS011;5827;49.482;7.716;2023-05-10T02:49:23;5.40;;;4.90;;
11541;SDS011;5827;49.482;7.716;2023-05-10T02:51:25;5.40;;;4.90;;
11541;SDS011;5827;49.482;7.716;2023-05-10T02:53:32;6.07;;;5.00;;
11541;SDS011;5827;49.482;7.716;2023-05-10T02:55:38;5.20;;;4.75;;
11541;SDS011;5827;49.482;7.716;2023-05-10T02:57:43;5.70;;;4.90;;
11541;SDS011;5827;49.482;7.716;2023-05-10T02:59:49;5.38;;;4.93;;
11541;SDS011;5827;49.482;7.716;2023-05-10T03:01:51;5.78;;;5.20;;
11541;SDS011;5827;49.482;7.716;2023-05-10T03:03:53;6.27;;;5.67;;
11541;SDS011;5827;49.482;7.716;2023-05-10T03:05:54;5.57;;;5.15;;
11541;SDS011;5827;49.482;7.716;2023-05-10T03:07:56;5.80;;;5.32;;
11541;SDS011;5827;49.482;7.716;2023-05-10T03:09:58;5.65;;;5.20;;
11541;SDS011;5827;49.482;7.716;2023-05-10T03:12:03;5.65;;;5.15;;
11541;SDS011;5827;49.482;7.716;2023-05-10T03:14:10;5.50;;;5.00;;
11541;SDS011;5827;49.482;7.716;2023-05-10T03:16:20;5.70;;;5.20;;
11541;SDS011;5827;49.482;7.716;2023-05-10T03:18:28;6.23;;;5.73;;
11541;SDS011;5827;49.482;7.716;2023-05-10T03:20:35;6.13;;;5.40;;
11541;SDS011;5827;49.482;7.716;2023-05-10T03:22:39;6.40;;;5.65;;
11541;SDS011;5827;49.482;7.716;2023-05-10T03:24:45;6.60;;;6.00;;
11541;SDS011;5827;49.482;7.716;2023-05-10T03:26:48;8.13;;;5.80;;
11541;SDS011;5827;49.482;7.716;2023-05-10T03:28:51;5.80;;;5.30;;
11541;SDS011;5827;49.482;7.716;2023-05-10T03:30:54;6.38;;;5.65;;
11541;SDS011;5827;49.482;7.716;2023-05-10T03:32:57;6.43;;;5.72;;
11541;SDS011;5827;49.482;7.716;2023-05-10T03:34:58;7.05;;;5.80;;
11541;SDS011;5827;49.482;7.716;2023-05-10T03:37:00;6.72;;;6.20;;
11541;SDS011;5827;49.482;7.716;2023-05-10T03:39:01;6.57;;;5.93;;
11541;SDS011;5827;49.482;7.716;2023-05-10T03:41:03;7.10;;;6.17;;
11541;SDS011;5827;49.482;7.716;2023-05-10T03:43:04;6.63;;;6.07;;
11541;SDS011;5827;49.482;7.716;2023-05-10T03:45:08;7.30;;;6.60;;
11541;SDS011;5827;49.482;7.716;2023-05-10T03:47:10;8.23;;;6.90;;
11541;SDS011;5827;49.482;7.716;2023-05-10T03:49:12;6.82;;;6.13;;
11541;SDS011;5827;49.482;7.716;2023-05-10T03:51:13;7.22;;;6.60;;
11541;SDS011;5827;49.482;7.716;2023-05-10T03:53:15;7.28;;;6.63;;
11541;SDS011;5827;49.482;7.716;2023-05-10T03:55:16;7.77;;;6.80;;
11541;SDS011;5827;49.482;7.716;2023-05-10T03:57:18;7.90;;;7.20;;
11541;SDS011;5827;49.482;7.716;2023-05-10T03:59:19;7.60;;;6.80;;
11541;SDS011;5827;49.482;7.716;2023-05-10T04:01:22;7.82;;;7.05;;
11541;SDS011;5827;49.482;7.716;2023-05-10T04:03:24;8.10;;;7.40;;
11541;SDS011;5827;49.482;7.716;2023-05-10T04:05:25;7.95;;;7.20;;
11541;SDS011;5827;49.482;7.716;2023-05-10T04:07:27;7.73;;;6.97;;
11541;SDS011;5827;49.482;7.716;2023-05-10T04:09:29;7.80;;;7.00;;
11541;SDS011;5827;49.482;7.716;2023-05-10T04:11:30;7.70;;;7.00;;
11541;SDS011;5827;49.482;7.716;2023-05-10T04:13:32;7.22;;;6.53;;
11541;SDS011;5827;49.482;7.716;2023-05-10T04:15:33;7.90;;;7.20;;
11541;SDS011;5827;49.482;7.716;2023-05-10T04:17:37;7.60;;;6.80;;
11541;SDS011;5827;49.482;7.716;2023-05-10T04:19:38;8.23;;;6.60;;
11541;SDS011;5827;49.482;7.716;2023-05-10T04:21:40;7.10;;;6.50;;
11541;SDS011;5827;49.482;7.716;2023-05-10T04:23:41;7.88;;;7.10;;
11541;SDS011;5827;49.482;7.716;2023-05-10T04:25:43;8.32;;;7.30;;
11541;SDS011;5827;49.482;7.716;2023-05-10T04:27:44;8.20;;;7.30;;
11541;SDS011;5827;49.482;7.716;2023-05-10T04:29:46;8.17;;;7.33;;
11541;SDS011;5827;49.482;7.716;2023-05-10T04:31:47;8.63;;;6.88;;
11541;SDS011;5827;49.482;7.716;2023-05-10T04:33:52;7.20;;;6.60;;
11541;SDS011;5827;49.482;7.716;2023-05-10T04:35:53;6.97;;;6.38;;
11541;SDS011;5827;49.482;7.716;2023-05-10T04:37:55;7.60;;;6.47;;
11541;SDS011;5827;49.482;7.716;2023-05-10T04:39:56;5.97;;;5.38;;
11541;SDS011;5827;49.482;7.716;2023-05-10T04:41:59;5.80;;;4.90;;
11541;SDS011;5827;49.482;7.716;2023-05-10T04:44:02;5.00;;;4.53;;
11541;SDS011;5827;49.482;7.716;2023-05-10T04:46:05;4.47;;;4.07;;
11541;SDS011;5827;49.482;7.716;2023-05-10T04:48:07;4.32;;;3.90;;
11541;SDS011;5827;49.482;7.716;2023-05-10T04:50:09;4.47;;;4.07;;
11541;SDS011;5827;49.482;7.716;2023-05-10T04:52:11;4.28;;;3.83;;
11541;SDS011;5827;49.482;7.716;2023-05-10T04:54:12;3.92;;;3.50;;
11541;SDS011;5827;49.482;7.716;2023-05-10T04:56:14;3.67;;;3.30;;
11541;SDS011;5827;49.482;7.716;2023-05-10T04:58:16;3.77;;;3.37;;
11541;SDS011;5827;49.482;7.716;2023-05-10T05:00:17;4.80;;;3.50;;
11541;SDS011;5827;49.482;7.716;2023-05-10T05:02:19;3.77;;;3.27;;
11541;SDS011;5827;49.482;7.716;2023-05-10T05:04:21;3.92;;;3.42;;
11541;SDS011;5827;49.482;7.716;2023-05-10T05:06:25;3.70;;;3.40;;
11541;SDS011;5827;49.482;7.716;2023-05-10T05:08:27;4.57;;;3.30;;
11541;SDS011;5827;49.482;7.716;2023-05-10T05:10:28;3.70;;;3.40;;
11541;SDS011;5827;49.482;7.716;2023-05-10T05:12:30;3.80;;;3.50;;
11541;SDS011;5827;49.482;7.716;2023-05-10T05:14:31;4.10;;;3.80;;
11541;SDS011;5827;49.482;7.716;2023-05-10T05:16:33;4.00;;;3.47;;
11541;SDS011;5827;49.482;7.716;2023-05-10T05:18:34;3.92;;;3.60;;
11541;SDS011;5827;49.482;7.716;2023-05-10T05:20:36;5.10;;;3.90;;
11541;SDS011;5827;49.482;7.716;2023-05-10T05:22:39;3.92;;;3.50;;
11541;SDS011;5827;49.482;7.716;2023-05-10T05:24:40;3.95;;;3.50;;
11541;SDS011;5827;49.482;7.716;2023-05-10T05:26:42;4.82;;;3.60;;
11541;SDS011;5827;49.482;7.716;2023-05-10T05:28:43;5.88;;;3.75;;
11541;SDS011;5827;49.482;7.716;2023-05-10T05:30:45;4.20;;;3.80;;
11541;SDS011;5827;49.482;7.716;2023-05-10T05:32:46;4.57;;;3.70;;
11541;SDS011;5827;49.482;7.716;2023-05-10T05:34:48;4.78;;;3.90;;
11541;SDS011;5827;49.482;7.716;2023-05-10T05:36:49;4.40;;;4.00;;
11541;SDS011;5827;49.482;7.716;2023-05-10T05:38:52;4.03;;;3.63;;
11541;SDS011;5827;49.482;7.716;2023-05-10T05:40:54;4.32;;;3.70;;
11541;SDS011;5827;49.482;7.716;2023-05-10T05:42:55;4.10;;;3.80;;
11541;SDS011;5827;49.482;7.716;2023-05-10T05:44:56;5.88;;;3.75;;
11541;SDS011;5827;49.482;7.716;2023-05-10T05:46:58;3.90;;;3.50;;
11541;SDS011;5827;49.482;7.716;2023-05-10T05:48:59;4.40;;;3.60;;
11541;SDS011;5827;49.482;7.716;2023-05-10T05:51:01;4.85;;;3.55;;
11541;SDS011;5827;49.482;7.716;2023-05-10T05:53:02;5.30;;;3.95;;
11541;SDS011;5827;49.482;7.716;2023-05-10T05:55:05;4.55;;;3.65;;
11541;SDS011;5827;49.482;7.716;2023-05-10T05:57:07;4.38;;;3.63;;
11541;SDS011;5827;49.482;7.716;2023-05-10T05:59:09;4.30;;;3.63;;
11541;SDS011;5827;49.482;7.716;2023-05-10T06:01:10;4.25;;;3.45;;
11541;SDS011;5827;49.482;7.716;2023-05-10T06:03:12;4.17;;;3.77;;
11541;SDS011;5827;49.482;7.716;2023-05-10T06:05:13;4.32;;;3.60;;
11541;SDS011;5827;49.482;7.716;2023-05-10T06:07:15;4.50;;;3.70;;
11541;SDS011;5827;49.482;7.716;2023-05-10T06:09:16;4.87;;;3.40;;
11541;SDS011;5827;49.482;7.716;2023-05-10T06:11:19;4.03;;;3.30;;
11541;SDS011;5827;49.482;7.716;2023-05-10T06:13:21;5.63;;;3.00;;
11541;SDS011;5827;49.482;7.716;2023-05-10T06:15:22;3.85;;;3.20;;
11541;SDS011;5827;49.482;7.716;2023-05-10T06:17:24;4.67;;;3.03;;
11541;SDS011;5827;49.482;7.716;2023-05-10T06:19:26;3.67;;;2.97;;
11541;SDS011;5827;49.482;7.716;2023-05-10T06:21:27;3.88;;;2.88;;
11541;SDS011;5827;49.482;7.716;2023-05-10T06:23:29;3.47;;;2.63;;
11541;SDS011;5827;49.482;7.716;2023-05-10T06:25:31;2.85;;;2.60;;
11541;SDS011;5827;49.482;7.716;2023-05-10T06:27:34;3.50;;;2.40;;
11541;SDS011;5827;49.482;7.716;2023-05-10T06:29:35;2.95;;;2.28;;
11541;SDS011;5827;49.482;7.716;2023-05-10T06:31:37;2.78;;;2.42;;
11541;SDS011;5827;49.482;7.716;2023-05-10T06:33:38;2.50;;;2.15;;
11541;SDS011;5827;49.482;7.716;2023-05-10T06:35:40;2.40;;;2.20;;
11541;SDS011;5827;49.482;7.716;2023-05-10T06:37:41;3.20;;;2.10;;
11541;SDS011;5827;49.482;7.716;2023-05-10T06:39:43;3.80;;;2.20;;
11541;SDS011;5827;49.482;7.716;2023-05-10T06:41:44;2.25;;;1.83;;
11541;SDS011;5827;49.482;7.716;2023-05-10T06:43:47;2.47;;;1.75;;
11541;SDS011;5827;49.482;7.716;2023-05-10T06:45:48;2.72;;;1.90;;
11541;SDS011;5827;49.482;7.716;2023-05-10T06:47:51;2.72;;;1.85;;
11541;SDS011;5827;49.482;7.716;2023-05-10T06:49:52;3.00;;;1.90;;
11541;SDS011;5827;49.482;7.716;2023-05-10T06:51:55;2.25;;;2.00;;
11541;SDS011;5827;49.482;7.716;2023-05-10T06:53:56;3.45;;;2.10;;
11541;SDS011;5827;49.482;7.716;2023-05-10T06:55:57;3.00;;;1.90;;
11541;SDS011;5827;49.482;7.716;2023-05-10T06:57:59;2.50;;;2.17;;
11541;SDS011;5827;49.482;7.716;2023-05-10T07:00:02;2.30;;;2.10;;
11541;SDS011;5827;49.482;7.716;2023-05-10T07:02:05;2.60;;;2.03;;
11541;SDS011;5827;49.482;7.716;2023-05-10T07:04:06;4.25;;;2.42;;
11541;SDS011;5827;49.482;7.716;2023-05-10T07:06:08;2.72;;;2.53;;
11541;SDS011;5827;49.482;7.716;2023-05-10T07:08:09;4.13;;;3.10;;
11541;SDS011;5827;49.482;7.716;2023-05-10T07:10:11;3.55;;;2.60;;
11541;SDS011;5827;49.482;7.716;2023-05-10T07:12:13;3.38;;;3.08;;
11541;SDS011;5827;49.482;7.716;2023-05-10T07:14:14;3.75;;;3.00;;
11541;SDS011;5827;49.482;7.716;2023-05-10T07:16:17;3.65;;;3.10;;
11541;SDS011;5827;49.482;7.716;2023-05-10T07:18:19;3.53;;;3.10;;
11541;SDS011;5827;49.482;7.716;2023-05-10T07:20:20;3.42;;;3.13;;
11541;SDS011;5827;49.482;7.716;2023-05-10T07:22:22;3.88;;;2.97;;
11541;SDS011;5827;49.482;7.716;2023-05-10T07:24:23;2.83;;;2.42;;
11541;SDS011;5827;49.482;7.716;2023-05-10T07:26:25;4.35;;;2.58;;
11541;SDS011;5827;49.482;7.716;2023-05-10T07:28:26;3.17;;;2.70;;
11541;SDS011;5827;49.482;7.716;2023-05-10T07:30:28;4.57;;;2.60;;
11541;SDS011;5827;49.482;7.716;2023-05-10T07:32:31;7.32;;;2.58;;
11541;SDS011;5827;49.482;7.716;2023-05-10T07:34:32;4.50;;;2.60;;
11541;SDS011;5827;49.482;7.716;2023-05-10T07:36:34;4.57;;;2.60;;
11541;SDS011;5827;49.482;7.716;2023-05-10T07:38:35;3.53;;;2.72;;
11541;SDS011;5827;49.482;7.716;2023-05-10T07:40:37;4.25;;;2.47;;
11541;SDS011;5827;49.482;7.716;2023-05-10T07:42:40;3.08;;;2.80;;
11541;SDS011;5827;49.482;7.716;2023-05-10T07:44:41;4.37;;;2.50;;
11541;SDS011;5827;49.482;7.716;2023-05-10T07:46:43;5.13;;;2.50;;
11541;SDS011;5827;49.482;7.716;2023-05-10T07:48:46;5.57;;;2.80;;
11541;SDS011;5827;49.482;7.716;2023-05-10T07:50:47;3.80;;;2.90;;
11541;SDS011;5827;49.482;7.716;2023-05-10T07:52:48;3.00;;;2.80;;
11541;SDS011;5827;49.482;7.716;2023-05-10T07:54:50;3.58;;;2.83;;
11541;SDS011;5827;49.482;7.716;2023-05-10T07:56:52;3.03;;;2.63;;
11541;SDS011;5827;49.482;7.716;2023-05-10T07:58:53;3.22;;;2.80;;
11541;SDS011;5827;49.482;7.716;2023-05-10T08:00:55;2.92;;;2.60;;
11541;SDS011;5827;49.482;7.716;2023-05-10T08:02:57;2.60;;;2.40;;
11541;SDS011;5827;49.482;7.716;2023-05-10T08:04:59;3.03;;;2.37;;
11541;SDS011;5827;49.482;7.716;2023-05-10T08:07:01;3.57;;;2.33;;
11541;SDS011;5827;49.482;7.716;2023-05-10T08:09:03;2.50;;;2.30;;
11541;SDS011;5827;49.482;7.716;2023-05-10T08:11:04;3.72;;;2.55;;
11541;SDS011;5827;49.482;7.716;2023-05-10T08:13:06;2.37;;;1.87;;
11541;SDS011;5827;49.482;7.716;2023-05-10T08:15:09;2.28;;;1.40;;
11541;SDS011;5827;49.482;7.716;2023-05-10T08:17:11;5.53;;;2.03;;
11541;SDS011;5827;49.482;7.716;2023-05-10T08:19:12;3.47;;;2.10;;
11541;SDS011;5827;49.482;7.716;2023-05-10T08:21:15;2.90;;;2.13;;
11541;SDS011;5827;49.482;7.716;2023-05-10T08:23:17;3.25;;;1.70;;
11541;SDS011;5827;49.482;7.716;2023-05-10T08:25:18;2.25;;;1.95;;
11541;SDS011;5827;49.482;7.716;2023-05-10T08:27:20;2.92;;;2.10;;
11541;SDS011;5827;49.482;7.716;2023-05-10T08:29:21;3.00;;;2.50;;
11541;SDS011;5827;49.482;7.716;2023-05-10T08:31:23;3.03;;;1.70;;
11541;SDS011;5827;49.482;7.716;2023-05-10T08:33:24;3.30;;;2.10;;
11541;SDS011;5827;49.482;7.716;2023-05-10T08:35:26;3.88;;;2.20;;
11541;SDS011;5827;49.482;7.716;2023-05-10T08:37:30;2.47;;;2.28;;
11541;SDS011;5827;49.482;7.716;2023-05-10T08:39:34;4.00;;;3.10;;
11541;SDS011;5827;49.482;7.716;2023-05-10T08:41:36;4.80;;;2.65;;
11541;SDS011;5827;49.482;7.716;2023-05-10T08:43:40;3.85;;;2.90;;
11541;SDS011;5827;49.482;7.716;2023-05-10T08:45:46;4.15;;;2.83;;
11541;SDS011;5827;49.482;7.716;2023-05-10T08:47:49;3.28;;;2.75;;
11541;SDS011;5827;49.482;7.716;2023-05-10T08:49:52;4.30;;;2.67;;
11541;SDS011;5827;49.482;7.716;2023-05-10T08:51:55;3.50;;;3.00;;
11541;SDS011;5827;49.482;7.716;2023-05-10T08:54:00;4.78;;;2.97;;
11541;SDS011;5827;49.482;7.716;2023-05-10T08:56:03;3.42;;;2.70;;
11541;SDS011;5827;49.482;7.716;2023-05-10T08:58:05;3.22;;;2.70;;
11541;SDS011;5827;49.482;7.716;2023-05-10T09:00:07;3.10;;;2.25;;
11541;SDS011;5827;49.482;7.716;2023-05-10T09:02:10;3.83;;;2.67;;
11541;SDS011;5827;49.482;7.716;2023-05-10T09:04:14;4.20;;;2.67;;
11541;SDS011;5827;49.482;7.716;2023-05-10T09:06:15;4.70;;;2.30;;
11541;SDS011;5827;49.482;7.716;2023-05-10T09:08:17;5.43;;;2.65;;
11541;SDS011;5827;49.482;7.716;2023-05-10T09:10:21;4.72;;;2.40;;
11541;SDS011;5827;49.482;7.716;2023-05-10T09:12:26;2.10;;;1.90;;
11541;SDS011;5827;49.482;7.716;2023-05-10T09:14:28;2.40;;;2.20;;
11541;SDS011;5827;49.482;7.716;2023-05-10T09:16:30;2.07;;;1.87;;
11541;SDS011;5827;49.482;7.716;2023-05-10T09:18:31;1.70;;;1.60;;
11541;SDS011;5827;49.482;7.716;2023-05-10T09:20:33;1.73;;;1.63;;
11541;SDS011;5827;49.482;7.716;2023-05-10T09:22:34;1.98;;;1.60;;
11541;SDS011;5827;49.482;7.716;2023-05-10T09:24:37;2.88;;;1.60;;
11541;SDS011;5827;49.482;7.716;2023-05-10T09:26:47;2.05;;;1.80;;
11541;SDS011;5827;49.482;7.716;2023-05-10T09:28:50;1.98;;;1.40;;
11541;SDS011;5827;49.482;7.716;2023-05-10T09:30:52;1.50;;;1.40;;
11541;SDS011;5827;49.482;7.716;2023-05-10T09:32:55;3.47;;;1.42;;
11541;SDS011;5827;49.482;7.716;2023-05-10T09:34:58;1.73;;;1.50;;
11541;SDS011;5827;49.482;7.716;2023-05-10T09:37:07;2.45;;;1.35;;
11541;SDS011;5827;49.482;7.716;2023-05-10T09:39:09;2.58;;;1.50;;
11541;SDS011;5827;49.482;7.716;2023-05-10T09:41:15;2.35;;;1.60;;
11541;SDS011;5827;49.482;7.716;2023-05-10T09:43:18;2.47;;;1.40;;
11541;SDS011;5827;49.482;7.716;2023-05-10T09:45:21;2.38;;;1.40;;
11541;SDS011;5827;49.482;7.716;2023-05-10T09:47:24;2.40;;;1.20;;
11541;SDS011;5827;49.482;7.716;2023-05-10T09:49:26;2.25;;;1.45;;
11541;SDS011;5827;49.482;7.716;2023-05-10T09:51:28;2.40;;;1.30;;
11541;SDS011;5827;49.482;7.716;2023-05-10T09:53:30;2.40;;;1.40;;
11541;SDS011;5827;49.482;7.716;2023-05-10T09:55:38;3.30;;;1.50;;
11541;SDS011;5827;49.482;7.716;2023-05-10T09:57:41;3.25;;;1.50;;
11541;SDS011;5827;49.482;7.716;2023-05-10T09:59:43;2.83;;;1.30;;
11541;SDS011;5827;49.482;7.716;2023-05-10T10:01:49;2.88;;;1.33;;
11541;SDS011;5827;49.482;7.716;2023-05-10T10:03:50;2.30;;;1.50;;
11541;SDS011;5827;49.482;7.716;2023-05-10T10:05:52;2.92;;;1.50;;
11541;SDS011;5827;49.482;7.716;2023-05-10T10:07:56;2.97;;;1.50;;
11541;SDS011;5827;49.482;7.716;2023-05-10T10:09:59;1.70;;;1.27;;
11541;SDS011;5827;49.482;7.716;2023-05-10T10:12:01;4.43;;;1.40;;
11541;SDS011;5827;49.482;7.716;2023-05-10T10:14:03;3.40;;;1.57;;
11541;SDS011;5827;49.482;7.716;2023-05-10T10:16:07;3.75;;;1.50;;
11541;SDS011;5827;49.482;7.716;2023-05-10T10:18:12;2.83;;;1.50;;
11541;SDS011;5827;49.482;7.716;2023-05-10T10:20:15;6.30;;;1.60;;
11541;SDS011;5827;49.482;7.716;2023-05-10T10:22:17;4.43;;;1.58;;
11541;SDS011;5827;49.482;7.716;2023-05-10T10:24:18;2.22;;;1.33;;
11541;SDS011;5827;49.482;7.716;2023-05-10T10:26:20;3.80;;;1.42;;
11541;SDS011;5827;49.482;7.716;2023-05-10T10:28:24;4.00;;;1.40;;
11541;SDS011;5827;49.482;7.716;2023-05-10T10:30:35;2.67;;;1.23;;
11541;SDS011;5827;49.482;7.716;2023-05-10T10:32:46;2.10;;;1.30;;
11541;SDS011;5827;49.482;7.716;2023-05-10T10:35:01;2.42;;;1.30;;
11541;SDS011;5827;49.482;7.716;2023-05-10T10:37:04;4.30;;;1.50;;
11541;SDS011;5827;49.482;7.716;2023-05-10T10:39:08;5.82;;;1.60;;
11541;SDS011;5827;49.482;7.716;2023-05-10T10:41:27;2.65;;;1.50;;
11541;SDS011;5827;49.482;7.716;2023-05-10T10:43:29;3.13;;;1.50;;
11541;SDS011;5827;49.482;7.716;2023-05-10T10:45:31;3.83;;;1.60;;
11541;SDS011;5827;49.482;7.716;2023-05-10T10:47:32;5.40;;;1.70;;
11541;SDS011;5827;49.482;7.716;2023-05-10T10:49:42;4.03;;;1.63;;
11541;SDS011;5827;49.482;7.716;2023-05-10T10:54:21;2.97;;;1.50;;
11541;SDS011;5827;49.482;7.716;2023-05-10T10:56:28;3.47;;;1.40;;
11541;SDS011;5827;49.482;7.716;2023-05-10T10:58:30;3.47;;;1.30;;
11541;SDS011;5827;49.482;7.716;2023-05-10T11:00:32;4.10;;;1.50;;
11541;SDS011;5827;49.482;7.716;2023-05-10T11:02:42;2.55;;;1.30;;
11541;SDS011;5827;49.482;7.716;2023-05-10T11:04:47;5.33;;;1.70;;
11541;SDS011;5827;49.482;7.716;2023-05-10T11:06:48;3.22;;;1.48;;
11541;SDS011;5827;49.482;7.716;2023-05-10T11:08:50;2.45;;;1.40;;
11541;SDS011;5827;49.482;7.716;2023-05-10T11:11:03;3.05;;;1.60;;
11541;SDS011;5827;49.482;7.716;2023-05-10T11:13:08;4.97;;;1.50;;
11541;SDS011;5827;49.482;7.716;2023-05-10T11:15:10;3.77;;;1.30;;
11541;SDS011;5827;49.482;7.716;2023-05-10T11:17:24;4.57;;;1.42;;
11541;SDS011;5827;49.482;7.716;2023-05-10T11:19:27;2.90;;;1.30;;
11541;SDS011;5827;49.482;7.716;2023-05-10T11:21:31;3.78;;;1.30;;
11541;SDS011;5827;49.482;7.716;2023-05-10T11:23:47;3.92;;;1.42;;
11541;SDS011;5827;49.482;7.716;2023-05-10T11:25:49;5.65;;;1.55;;
11541;SDS011;5827;49.482;7.716;2023-05-10T11:27:51;6.20;;;1.67;;
11541;SDS011;5827;49.482;7.716;2023-05-10T11:29:53;4.38;;;1.40;;
11541;SDS011;5827;49.482;7.716;2023-05-10T11:31:56;4.00;;;1.50;;
11541;SDS011;5827;49.482;7.716;2023-05-10T11:34:00;4.25;;;1.42;;
11541;SDS011;5827;49.482;7.716;2023-05-10T11:36:02;2.88;;;1.52;;
11541;SDS011;5827;49.482;7.716;2023-05-10T11:38:06;2.85;;;1.40;;
11541;SDS011;5827;49.482;7.716;2023-05-10T11:40:08;1.77;;;1.20;;
11541;SDS011;5827;49.482;7.716;2023-05-10T11:42:11;3.00;;;1.10;;
11541;SDS011;5827;49.482;7.716;2023-05-10T11:44:13;3.75;;;1.10;;
11541;SDS011;5827;49.482;7.716;2023-05-10T11:46:14;3.08;;;1.10;;
11541;SDS011;5827;49.482;7.716;2023-05-10T11:48:17;2.85;;;1.20;;
11541;SDS011;5827;49.482;7.716;2023-05-10T11:50:22;1.95;;;1.10;;
11541;SDS011;5827;49.482;7.716;2023-05-10T11:52:23;3.20;;;1.00;;
11541;SDS011;5827;49.482;7.716;2023-05-10T11:54:26;3.60;;;1.13;;
11541;SDS011;5827;49.482;7.716;2023-05-10T11:56:28;2.30;;;1.13;;
11541;SDS011;5827;49.482;7.716;2023-05-10T11:58:30;1.55;;;1.20;;
11541;SDS011;5827;49.482;7.716;2023-05-10T12:00:33;4.20;;;1.20;;
11541;SDS011;5827;49.482;7.716;2023-05-10T12:02:34;3.90;;;1.40;;
11541;SDS011;5827;49.482;7.716;2023-05-10T12:04:36;3.13;;;1.30;;
11541;SDS011;5827;49.482;7.716;2023-05-10T12:06:40;3.88;;;1.30;;
11541;SDS011;5827;49.482;7.716;2023-05-10T12:08:43;4.90;;;1.40;;
11541;SDS011;5827;49.482;7.716;2023-05-10T12:10:47;6.25;;;1.40;;
11541;SDS011;5827;49.482;7.716;2023-05-10T12:12:49;3.08;;;1.20;;
11541;SDS011;5827;49.482;7.716;2023-05-10T12:14:53;4.38;;;1.50;;
11541;SDS011;5827;49.482;7.716;2023-05-10T12:16:56;5.18;;;1.60;;
11541;SDS011;5827;49.482;7.716;2023-05-10T12:18:59;2.63;;;1.10;;
11541;SDS011;5827;49.482;7.716;2023-05-10T12:21:02;2.67;;;1.03;;
11541;SDS011;5827;49.482;7.716;2023-05-10T12:23:04;2.53;;;1.00;;
11541;SDS011;5827;49.482;7.716;2023-05-10T12:25:08;3.78;;;1.00;;
11541;SDS011;5827;49.482;7.716;2023-05-10T12:27:11;4.03;;;1.17;;
11541;SDS011;5827;49.482;7.716;2023-05-10T12:29:13;2.05;;;1.00;;
11541;SDS011;5827;49.482;7.716;2023-05-10T12:31:16;1.60;;;1.20;;
11541;SDS011;5827;49.482;7.716;2023-05-10T12:33:18;3.50;;;1.20;;
11541;SDS011;5827;49.482;7.716;2023-05-10T12:35:20;2.10;;;1.10;;
11541;SDS011;5827;49.482;7.716;2023-05-10T12:37:23;3.72;;;1.10;;
11541;SDS011;5827;49.482;7.716;2023-05-10T12:39:25;2.25;;;0.98;;